Gorkha Airport


Codes: VNGK/GKH
Name: Gorkha Airport
City: Gorkha
Country: Nepal
Elevation: 1500 ft.

Photos at Gorkha Airport


   Photos courtesy of SpottingLog. You can add your own sightings and photos by signing up for a free trial today.



No photos found.

Weather at Gorkha Airport


Time (UTC)DescriptionTempratureWindCloud coverageVisibilityPressureHumidity
16-Jun-2024 00:00Overcast Clouds26°C2 mph, NE99%10000m1003hPa69%
16-Jun-2024 03:00Overcast Clouds28°C2 mph, S91%10000m1003hPa60%
16-Jun-2024 06:00Broken Clouds34°C4 mph, SW80%10000m1002hPa41%
16-Jun-2024 09:00Light Rain38°C4 mph, E100%10000m999hPa30%
16-Jun-2024 12:00Light Rain35°C4 mph, NW100%10000m999hPa38%
16-Jun-2024 15:00Light Rain28°C4 mph, NE98%10000m1001hPa56%
16-Jun-2024 18:00Overcast Clouds28°C2 mph, NE93%10000m1001hPa54%
16-Jun-2024 21:00Overcast Clouds28°C0 mph, S100%10000m1001hPa55%
17-Jun-2024 00:00Overcast Clouds28°C2 mph, NE95%10000m1002hPa57%
17-Jun-2024 03:00Scattered Clouds35°C2 mph, N36%10000m1002hPa37%
17-Jun-2024 06:00Scattered Clouds41°C2 mph, SW29%10000m999hPa25%
17-Jun-2024 09:00Broken Clouds37°C4 mph, SE54%10000m998hPa34%
17-Jun-2024 12:00Light Rain28°C7 mph, NW71%10000m1001hPa68%
17-Jun-2024 15:00Light Rain27°C4 mph, E99%10000m1000hPa70%
17-Jun-2024 18:00Broken Clouds27°C2 mph, NE78%10000m1000hPa70%
17-Jun-2024 21:00Light Rain26°C0 mph, NE38%10000m1000hPa78%
18-Jun-2024 00:00Moderate Rain25°C2 mph, NW65%10000m1001hPa83%
18-Jun-2024 03:00Light Rain31°C0 mph, N89%10000m1001hPa60%
18-Jun-2024 06:00Broken Clouds36°C2 mph, NE78%10000m999hPa42%
18-Jun-2024 09:00Light Rain34°C9 mph, SW55%10000m996hPa52%
18-Jun-2024 12:00Light Rain29°C7 mph, NW60%10000m998hPa73%
18-Jun-2024 15:00Light Rain27°C4 mph, NE100%10000m998hPa78%
18-Jun-2024 18:00Overcast Clouds26°C2 mph, NE94%10000m999hPa79%
18-Jun-2024 21:00Moderate Rain25°C2 mph, W100%10000m998hPa87%
19-Jun-2024 00:00Moderate Rain25°C0 mph, E92%10000m998hPa90%
19-Jun-2024 03:00Light Rain26°C0 mph, N100%10000m1000hPa87%
19-Jun-2024 06:00Light Rain33°C2 mph, SE80%10000m998hPa60%
19-Jun-2024 09:00Light Rain35°C7 mph, S42%10000m996hPa50%
19-Jun-2024 12:00Moderate Rain27°C4 mph, NW64%10000m998hPa89%
19-Jun-2024 15:00Light Rain26°C2 mph, NE100%10000m998hPa86%
19-Jun-2024 18:00Light Rain25°C2 mph, SW94%10000m999hPa91%
19-Jun-2024 21:00Moderate Rain24°C4 mph, SW66%10000m999hPa96%
20-Jun-2024 00:00Light Rain25°C0 mph, NW57%10000m998hPa91%
20-Jun-2024 03:00Light Rain28°C2 mph, W95%10000m999hPa76%
20-Jun-2024 06:00Moderate Rain31°C4 mph, SW98%10000m999hPa68%
20-Jun-2024 09:00Moderate Rain31°C4 mph, SW100%10000m998hPa68%
20-Jun-2024 12:00Moderate Rain29°C2 mph, N100%4132m999hPa77%
20-Jun-2024 15:00Light Rain26°C2 mph, NE100%10000m999hPa89%
20-Jun-2024 18:00Light Rain25°C2 mph, N98%10000m1000hPa90%
20-Jun-2024 21:00Moderate Rain24°C4 mph, SW99%4850m1001hPa96%